createdAt,value
2018-11-25T00:00:24.035Z,56.70
2018-11-25T00:02:52.614Z,81.10
2018-11-25T00:05:21.249Z,68.17
2018-11-25T00:07:49.913Z,63.53
2018-11-25T00:10:18.477Z,68.77
2018-11-25T00:12:46.988Z,54.03
2018-11-25T00:15:15.623Z,44.97
2018-11-25T00:17:44.115Z,63.07
2018-11-25T00:20:13.493Z,52.33
2018-11-25T00:22:42.590Z,50.07
2018-11-25T00:25:13.987Z,44.03
2018-11-25T00:27:42.660Z,48.00
2018-11-25T00:30:15.009Z,49.53
2018-11-25T00:32:43.733Z,52.90
2018-11-25T00:35:14.673Z,61.70
2018-11-25T00:37:48.107Z,55.97
2018-11-25T00:40:12.546Z,47.83
2018-11-25T00:42:41.085Z,47.70
2018-11-25T00:45:12.971Z,59.73
2018-11-25T00:47:41.587Z,60.57
2018-11-25T00:50:12.237Z,55.00
2018-11-25T00:52:40.780Z,54.47
2018-11-25T00:55:12.584Z,53.90
2018-11-25T00:57:41.410Z,49.27
2018-11-25T01:00:13.650Z,46.10
2018-11-25T01:02:42.264Z,60.17
2018-11-25T01:05:11.248Z,50.73
2018-11-25T01:07:40.100Z,51.60
2018-11-25T01:10:10.916Z,61.13
2018-11-25T01:12:39.631Z,49.87
2018-11-25T01:15:13.572Z,59.90
2018-11-25T01:17:42.307Z,53.40
2018-11-25T01:20:13.022Z,53.77
2018-11-25T01:22:41.612Z,52.87
2018-11-25T01:25:10.971Z,51.27
2018-11-25T01:27:39.471Z,49.77
2018-11-25T01:30:11.594Z,47.90
2018-11-25T01:32:40.123Z,46.93
2018-11-25T01:35:10.553Z,52.67
2018-11-25T01:37:39.137Z,53.20
2018-11-25T01:40:13.508Z,48.67
2018-11-25T01:42:42.054Z,49.27
2018-11-25T01:45:11.950Z,51.50
2018-11-25T01:47:42.337Z,51.27
2018-11-25T01:50:17.323Z,50.67
2018-11-25T01:52:46.288Z,43.17
2018-11-25T01:55:16.091Z,49.40
2018-11-25T01:57:44.608Z,45.27
2018-11-25T02:00:19.452Z,62.67
2018-11-25T02:02:47.968Z,54.50
2018-11-25T02:05:16.775Z,57.47
2018-11-25T02:07:45.453Z,44.77
2018-11-25T02:10:15.864Z,53.10
2018-11-25T02:12:44.830Z,50.07
2018-11-25T02:15:14.551Z,48.73
2018-11-25T02:17:43.269Z,56.20
2018-11-25T02:20:15.288Z,50.17
2018-11-25T02:22:43.871Z,44.23
2018-11-25T02:25:12.433Z,43.93
2018-11-25T02:27:41.376Z,50.10
2018-11-25T02:30:12.418Z,49.63
2018-11-25T02:32:41.029Z,66.20
2018-11-25T02:35:10.640Z,56.60
2018-11-25T02:37:39.184Z,55.00
2018-11-25T02:40:12.559Z,55.47
2018-11-25T02:42:41.081Z,52.83
2018-11-25T02:45:14.639Z,67.17
2018-11-25T02:47:43.388Z,69.00
2018-11-25T02:50:31.920Z,56.20
2018-11-25T02:53:04.793Z,69.23
2018-11-25T02:55:33.810Z,64.00
2018-11-25T02:58:03.189Z,65.10
2018-11-25T03:00:31.763Z,72.60
2018-11-25T03:03:00.426Z,71.00
2018-11-25T03:05:29.366Z,76.67
2018-11-25T03:07:57.927Z,52.93
2018-11-25T03:10:26.484Z,67.63
2018-11-25T03:12:55.095Z,80.97
2018-11-25T03:15:23.654Z,68.30
2018-11-25T03:17:52.207Z,75.20
2018-11-25T03:20:20.871Z,74.50
2018-11-25T03:22:49.515Z,88.63
2018-11-25T03:25:19.138Z,87.03
2018-11-25T03:27:47.743Z,79.60
2018-11-25T03:30:17.274Z,92.87
2018-11-25T03:32:46.675Z,85.77
2018-11-25T03:35:15.303Z,84.17
2018-11-25T03:37:44.354Z,86.63
2018-11-25T03:40:14.020Z,93.30
2018-11-25T03:42:42.597Z,88.10
2018-11-25T03:45:14.421Z,87.80
2018-11-25T03:47:42.903Z,82.47
2018-11-25T03:50:12.441Z,93.67
2018-11-25T03:52:41.141Z,98.97
2018-11-25T03:55:11.614Z,110.53
2018-11-25T03:57:40.185Z,92.60
2018-11-25T04:00:15.907Z,100.47
2018-11-25T04:02:44.475Z,110.03
2018-11-25T04:05:14.000Z,102.83
2018-11-25T04:07:42.588Z,106.30
2018-11-25T04:10:13.916Z,102.03
2018-11-25T04:12:42.462Z,106.53
2018-11-25T04:15:12.802Z,112.53
2018-11-25T04:17:41.351Z,118.30
2018-11-25T04:20:11.591Z,111.80
2018-11-25T04:22:40.128Z,114.00
2018-11-25T04:25:09.810Z,117.03
2018-11-25T04:27:38.542Z,108.47
2018-11-25T04:30:15.480Z,90.53
2018-11-25T04:32:44.528Z,99.27
2018-11-25T04:35:13.550Z,105.90
2018-11-25T04:37:42.158Z,115.07
2018-11-25T04:40:13.672Z,96.50
2018-11-25T04:42:42.231Z,114.90
2018-11-25T04:45:11.816Z,114.93
2018-11-25T04:47:40.414Z,106.67
2018-11-25T04:50:17.700Z,101.60
2018-11-25T04:52:46.275Z,103.20
2018-11-25T04:55:14.950Z,99.40
2018-11-25T04:57:48.781Z,123.33
2018-11-25T05:00:17.339Z,115.63
2018-11-25T05:02:45.863Z,94.47
2018-11-25T05:05:15.351Z,98.07
2018-11-25T05:07:43.922Z,86.27
2018-11-25T05:10:14.306Z,98.97
2018-11-25T05:12:42.861Z,95.70
2018-11-25T05:15:16.626Z,99.77
2018-11-25T05:17:45.159Z,93.50
2018-11-25T05:20:14.266Z,103.23
2018-11-25T05:22:42.832Z,100.10
2018-11-25T05:25:12.494Z,105.20
2018-11-25T05:27:41.054Z,120.17
2018-11-25T05:30:15.307Z,107.67
2018-11-25T05:32:43.838Z,106.07
2018-11-25T05:35:15.242Z,111.47
2018-11-25T05:37:43.776Z,110.27
2018-11-25T05:40:15.840Z,116.73
2018-11-25T05:42:44.481Z,99.00
2018-11-25T05:45:17.895Z,104.87
2018-11-25T05:47:46.506Z,123.97
2018-11-25T05:50:16.223Z,105.20
2018-11-25T05:52:44.894Z,124.37
2018-11-25T05:55:13.713Z,114.30
2018-11-25T05:57:42.407Z,91.77
2018-11-25T06:00:17.147Z,110.13
2018-11-25T06:02:45.694Z,110.93
2018-11-25T06:05:14.272Z,129.07
2018-11-25T06:07:42.902Z,107.53
2018-11-25T06:10:12.634Z,104.53
2018-11-25T06:12:41.268Z,109.43
2018-11-25T06:15:12.871Z,115.63
2018-11-25T06:17:42.041Z,117.67
2018-11-25T06:20:13.396Z,101.63
2018-11-25T06:22:42.117Z,113.07
2018-11-25T06:25:14.127Z,114.47
2018-11-25T06:27:42.706Z,104.30
2018-11-25T06:30:14.360Z,109.37
2018-11-25T06:32:42.919Z,110.00
2018-11-25T06:35:12.492Z,112.27
2018-11-25T06:37:41.187Z,106.50
2018-11-25T06:40:12.040Z,107.37
2018-11-25T06:42:40.557Z,117.17
2018-11-25T06:45:12.323Z,122.77
2018-11-25T06:47:40.830Z,119.80
2018-11-25T06:50:12.383Z,113.63
2018-11-25T06:52:39.793Z,131.53
2018-11-25T06:55:09.772Z,109.90
2018-11-25T06:57:38.600Z,122.63
2018-11-25T07:00:11.981Z,122.10
2018-11-25T07:02:41.144Z,95.67
2018-11-25T07:05:09.753Z,97.97
2018-11-25T07:07:38.404Z,93.73
2018-11-25T07:10:12.872Z,100.80
2018-11-25T07:12:42.649Z,103.73
2018-11-25T07:15:12.745Z,112.73
2018-11-25T07:17:41.541Z,94.60
2018-11-25T07:20:14.122Z,110.73
2018-11-25T07:22:42.643Z,113.07
2018-11-25T07:25:16.468Z,95.97
2018-11-25T07:27:44.950Z,92.77
2018-11-25T07:30:15.938Z,95.87
2018-11-25T07:32:44.497Z,113.00
2018-11-25T07:35:13.059Z,100.93
2018-11-25T07:37:41.647Z,93.33
2018-11-25T07:40:14.435Z,93.03
2018-11-25T07:42:43.168Z,96.23
2018-11-25T07:45:13.080Z,90.23
2018-11-25T07:47:41.600Z,98.30
2018-11-25T07:50:11.339Z,103.77
2018-11-25T07:52:40.025Z,97.67
2018-11-25T07:55:11.891Z,85.20
2018-11-25T07:57:40.672Z,99.93
2018-11-25T08:00:16.646Z,89.57
2018-11-25T08:02:45.342Z,79.33
2018-11-25T08:05:15.621Z,90.20
2018-11-25T08:07:44.211Z,79.93
2018-11-25T08:10:14.072Z,86.13
2018-11-25T08:12:42.619Z,86.60
2018-11-25T08:15:12.067Z,100.53
2018-11-25T08:17:47.280Z,98.33
2018-11-25T08:20:18.792Z,89.07
2018-11-25T08:22:50.159Z,88.87
2018-11-25T08:25:19.495Z,105.03
2018-11-25T08:27:48.115Z,96.10
2018-11-25T08:30:17.678Z,102.63
2018-11-25T08:32:46.205Z,87.70
2018-11-25T08:35:15.646Z,117.37
2018-11-25T08:37:44.183Z,88.70
2018-11-25T08:40:16.841Z,98.77
2018-11-25T08:42:45.367Z,100.47
2018-11-25T08:45:14.445Z,94.17
2018-11-25T08:47:43.234Z,99.33
2018-11-25T08:50:16.608Z,118.20
2018-11-25T08:52:46.329Z,101.30
2018-11-25T08:55:17.023Z,106.73
2018-11-25T08:57:45.614Z,110.17
2018-11-25T09:00:21.840Z,107.00
2018-11-25T09:02:51.295Z,115.00
2018-11-25T09:05:19.941Z,124.33
2018-11-25T09:07:48.425Z,100.80
2018-11-25T09:10:19.789Z,105.53
2018-11-25T09:12:55.849Z,116.23
2018-11-25T09:15:25.262Z,129.73
2018-11-25T09:17:53.834Z,122.20
2018-11-25T09:20:22.960Z,141.77
2018-11-25T09:22:52.090Z,119.33
2018-11-25T09:25:22.936Z,101.10
2018-11-25T09:27:51.501Z,100.10
2018-11-25T09:30:23.256Z,104.13
2018-11-25T09:32:51.828Z,98.63
2018-11-25T09:35:20.349Z,101.73
2018-11-25T09:37:49.257Z,103.70
2018-11-25T09:40:21.891Z,95.73
2018-11-25T09:42:50.491Z,113.53
2018-11-25T09:45:19.724Z,105.23
2018-11-25T09:47:48.893Z,109.87
2018-11-25T09:50:18.443Z,107.40
2018-11-25T09:52:46.977Z,92.67
2018-11-25T09:55:17.453Z,113.03
2018-11-25T09:57:48.068Z,103.07
2018-11-25T10:00:23.572Z,99.13
2018-11-25T10:02:52.150Z,83.03
2018-11-25T10:05:20.865Z,108.87
2018-11-25T10:07:49.372Z,99.53
2018-11-25T10:10:19.992Z,83.10
2018-11-25T10:12:48.479Z,88.90
2018-11-25T10:15:20.269Z,99.90
2018-11-25T10:17:48.993Z,82.40
2018-11-25T10:20:23.708Z,85.20
2018-11-25T10:22:52.251Z,85.93
2018-11-25T10:25:20.841Z,85.13
2018-11-25T10:27:49.431Z,70.83
2018-11-25T10:30:25.231Z,81.20
2018-11-25T10:32:56.174Z,82.30
2018-11-25T10:35:24.759Z,74.27
2018-11-25T10:37:53.277Z,82.30
2018-11-25T10:40:22.864Z,84.13
2018-11-25T10:42:51.752Z,77.27
2018-11-25T10:45:21.381Z,97.63
2018-11-25T10:47:49.896Z,96.80
2018-11-25T10:50:20.072Z,85.20
2018-11-25T10:52:55.302Z,78.07
2018-11-25T10:55:23.876Z,87.53
2018-11-25T10:57:53.139Z,80.60
2018-11-25T11:00:34.842Z,88.20
2018-11-25T11:03:08.831Z,89.60
2018-11-25T11:05:42.712Z,99.40
2018-11-25T11:08:11.416Z,98.87
2018-11-25T11:10:39.995Z,88.73
2018-11-25T11:13:08.889Z,85.13
2018-11-25T11:15:37.468Z,96.43
2018-11-25T11:18:06.469Z,96.50
2018-11-25T11:20:35.052Z,104.47
2018-11-25T11:23:03.713Z,100.37
2018-11-25T11:25:32.252Z,89.10
2018-11-25T11:28:00.764Z,103.73
2018-11-25T11:30:29.285Z,111.60
2018-11-25T11:32:58.007Z,111.90
2018-11-25T11:35:26.649Z,110.47
2018-11-25T11:37:55.209Z,117.60
2018-11-25T11:40:23.743Z,111.40
2018-11-25T11:42:52.443Z,107.47
2018-11-25T11:45:27.453Z,107.33
2018-11-25T11:47:56.037Z,101.03
2018-11-25T11:50:24.702Z,120.90
2018-11-25T11:52:53.218Z,127.03
2018-11-25T11:55:21.788Z,110.00
2018-11-25T11:57:50.340Z,104.23
2018-11-25T12:00:20.739Z,98.10
2018-11-25T12:02:49.386Z,101.43
2018-11-25T12:05:17.957Z,114.20
2018-11-25T12:07:46.536Z,130.50
2018-11-25T12:10:15.748Z,128.80
2018-11-25T12:12:44.345Z,114.07
2018-11-25T12:15:16.377Z,119.13
2018-11-25T12:17:44.873Z,117.57
2018-11-25T12:20:13.446Z,105.23
2018-11-25T12:22:42.163Z,106.20
2018-11-25T12:25:13.294Z,121.50
2018-11-25T12:27:41.804Z,125.73
2018-11-25T12:30:11.810Z,125.10
2018-11-25T12:32:40.731Z,124.43
2018-11-25T12:35:10.231Z,114.67
2018-11-25T12:37:38.778Z,112.97
2018-11-25T12:40:10.176Z,121.77
2018-11-25T12:42:39.280Z,116.90
2018-11-25T12:45:09.999Z,132.13
2018-11-25T12:47:39.171Z,101.17
2018-11-25T12:50:09.943Z,143.70
2018-11-25T12:52:38.522Z,119.57
2018-11-25T12:55:09.967Z,109.93
2018-11-25T12:57:38.542Z,120.67
2018-11-25T13:00:25.679Z,101.30
2018-11-25T13:02:54.184Z,117.30
2018-11-25T13:05:22.754Z,119.80
2018-11-25T13:07:51.279Z,133.23
2018-11-25T13:10:20.255Z,113.07
2018-11-25T13:12:48.820Z,94.80
2018-11-25T13:15:17.362Z,106.30
2018-11-25T13:17:45.892Z,99.73
2018-11-25T13:20:15.530Z,95.23
2018-11-25T13:22:44.336Z,111.13
2018-11-25T13:25:16.260Z,103.00
2018-11-25T13:27:44.820Z,98.83
2018-11-25T13:30:31.978Z,110.00
2018-11-25T13:33:02.837Z,94.33
2018-11-25T13:35:33.887Z,89.80
2018-11-25T13:38:02.684Z,95.63
2018-11-25T13:40:31.231Z,109.83
2018-11-25T13:42:59.836Z,102.60
2018-11-25T13:45:28.427Z,85.63
2018-11-25T13:47:56.983Z,97.87
2018-11-25T13:50:25.572Z,99.87
2018-11-25T13:52:54.068Z,77.70
2018-11-25T13:55:25.121Z,95.37
2018-11-25T13:57:53.659Z,101.83
2018-11-25T14:00:32.375Z,95.83
2018-11-25T14:03:01.613Z,92.83
2018-11-25T14:05:30.188Z,90.90
2018-11-25T14:07:58.812Z,85.90
2018-11-25T14:10:32.798Z,88.00
2018-11-25T14:13:01.425Z,86.50
2018-11-25T14:15:30.303Z,93.13
2018-11-25T14:17:58.843Z,95.50
2018-11-25T14:20:27.363Z,93.37
2018-11-25T14:22:56.082Z,95.70
2018-11-25T14:25:25.235Z,95.40
2018-11-25T14:27:55.904Z,96.60
2018-11-25T14:30:26.393Z,95.97
2018-11-25T14:32:55.438Z,85.70
2018-11-25T14:35:24.000Z,97.17
2018-11-25T14:37:52.618Z,88.17
2018-11-25T14:40:21.292Z,83.27
2018-11-25T14:42:50.111Z,89.37
2018-11-25T14:45:19.056Z,89.80
2018-11-25T14:47:47.693Z,82.17
2018-11-25T14:50:19.468Z,88.63
2018-11-25T14:52:50.305Z,87.27
2018-11-25T14:55:19.536Z,97.37
2018-11-25T14:57:48.105Z,80.10
2018-11-25T15:00:19.734Z,75.40
2018-11-25T15:02:56.451Z,87.03
2018-11-25T15:05:42.350Z,85.83
2018-11-25T15:08:12.454Z,83.83
2018-11-25T15:10:40.969Z,93.43
2018-11-25T15:13:09.738Z,88.10
2018-11-25T15:15:44.849Z,94.33
2018-11-25T15:18:13.392Z,94.13
2018-11-25T15:20:42.061Z,106.73
2018-11-25T15:23:13.032Z,85.23
2018-11-25T15:25:56.552Z,93.30
2018-11-25T15:28:25.081Z,101.90
2018-11-25T15:30:53.674Z,99.03
2018-11-25T15:33:22.243Z,95.10
2018-11-25T15:35:50.777Z,88.50
2018-11-25T15:38:19.340Z,88.10
2018-11-25T15:40:47.897Z,86.53
2018-11-25T15:43:16.418Z,94.17
2018-11-25T15:45:44.934Z,82.63
2018-11-25T15:48:17.351Z,91.47
2018-11-25T15:50:45.947Z,88.33
2018-11-25T15:53:14.530Z,88.07
2018-11-25T15:55:44.090Z,80.33
2018-11-25T15:58:13.286Z,77.00
2018-11-25T16:00:41.855Z,89.73
2018-11-25T16:03:11.445Z,97.30
2018-11-25T16:05:41.941Z,95.20
2018-11-25T16:08:10.467Z,87.27
2018-11-25T16:10:39.021Z,84.23
2018-11-25T16:13:08.571Z,82.23
2018-11-25T16:15:37.121Z,72.17
2018-11-25T16:18:06.057Z,77.50
2018-11-25T16:20:34.616Z,83.07
2018-11-25T16:23:04.907Z,68.13
2018-11-25T16:25:43.821Z,85.67
2018-11-25T16:28:20.027Z,86.10
2018-11-25T16:30:48.539Z,81.63
2018-11-25T16:33:17.196Z,77.80
2018-11-25T16:35:45.992Z,87.63
2018-11-25T16:38:15.107Z,74.70
2018-11-25T16:40:43.639Z,80.27
2018-11-25T16:43:12.195Z,93.50
2018-11-25T16:45:40.750Z,83.60
2018-11-25T16:48:09.435Z,75.67
2018-11-25T16:50:37.922Z,79.87
2018-11-25T16:53:07.129Z,79.60
2018-11-25T16:55:35.688Z,76.20
2018-11-25T16:58:04.179Z,69.73
2018-11-25T17:00:32.685Z,79.80
2018-11-25T17:03:01.299Z,78.90
2018-11-25T17:05:32.634Z,71.37
2018-11-25T17:08:04.042Z,66.43
2018-11-25T17:10:32.640Z,69.57
2018-11-25T17:13:01.366Z,72.33
2018-11-25T17:15:30.049Z,84.37
2018-11-25T17:17:58.659Z,72.60
2018-11-25T17:20:27.343Z,91.13
2018-11-25T17:22:55.871Z,76.60
2018-11-25T17:25:24.457Z,64.07
2018-11-25T17:27:53.142Z,81.60
2018-11-25T17:30:21.782Z,67.63
2018-11-25T17:32:50.327Z,75.97
2018-11-25T17:35:26.226Z,92.83
2018-11-25T17:37:54.735Z,79.80
2018-11-25T17:40:23.465Z,71.43
2018-11-25T17:42:52.067Z,78.70
2018-11-25T17:45:20.696Z,82.40
2018-11-25T17:47:49.260Z,73.43
2018-11-25T17:50:28.695Z,78.23
2018-11-25T17:52:57.277Z,77.63
2018-11-25T17:55:28.159Z,72.40
2018-11-25T17:57:56.727Z,72.47
2018-11-25T18:00:38.487Z,77.77
2018-11-25T18:03:22.582Z,66.80
2018-11-25T18:05:51.126Z,76.50
2018-11-25T18:08:19.658Z,80.90
2018-11-25T18:10:48.315Z,78.77
2018-11-25T18:13:18.398Z,83.23
2018-11-25T18:15:47.070Z,66.40
2018-11-25T18:18:18.484Z,79.97
2018-11-25T18:20:49.886Z,67.43
2018-11-25T18:23:18.430Z,80.30
2018-11-25T18:25:47.097Z,70.23
2018-11-25T18:28:15.788Z,66.63
2018-11-25T18:30:44.293Z,75.03
2018-11-25T18:33:12.780Z,72.23
2018-11-25T18:35:41.507Z,85.53
2018-11-25T18:38:10.047Z,89.60
2018-11-25T18:40:38.905Z,81.73
2018-11-25T18:43:08.041Z,86.37
2018-11-25T18:45:36.679Z,76.53
2018-11-25T18:48:05.355Z,83.97
2018-11-25T18:50:33.925Z,69.87
2018-11-25T18:53:02.703Z,72.57
2018-11-25T18:55:30.005Z,76.33
2018-11-25T18:57:58.528Z,91.83
2018-11-25T19:00:35.436Z,75.73
2018-11-25T19:03:03.989Z,89.33
2018-11-25T19:05:32.530Z,89.43
2018-11-25T19:08:01.111Z,84.77
2018-11-25T19:10:29.646Z,86.33
2018-11-25T19:12:58.171Z,97.00
2018-11-25T19:15:26.939Z,86.73
2018-11-25T19:17:55.571Z,78.70
2018-11-25T19:20:29.821Z,73.57
2018-11-25T19:22:59.350Z,93.40
2018-11-25T19:25:27.977Z,79.10
2018-11-25T19:27:57.334Z,89.47
2018-11-25T19:30:26.537Z,92.60
2018-11-25T19:32:54.455Z,95.63
2018-11-25T19:35:23.578Z,81.27
2018-11-25T19:37:53.071Z,80.23
2018-11-25T19:40:23.996Z,84.43
2018-11-25T19:42:52.567Z,81.83
2018-11-25T19:45:25.120Z,92.80
2018-11-25T19:47:54.079Z,79.50
2018-11-25T19:50:31.981Z,86.50
2018-11-25T19:53:00.667Z,85.67
2018-11-25T19:55:29.198Z,101.30
2018-11-25T19:57:57.785Z,98.20
2018-11-25T20:00:26.871Z,96.03
2018-11-25T20:02:55.502Z,95.77
2018-11-25T20:05:24.102Z,106.97
2018-11-25T20:07:52.753Z,95.67
2018-11-25T20:10:22.682Z,98.77
2018-11-25T20:12:57.472Z,112.47
2018-11-25T20:15:26.296Z,95.83
2018-11-25T20:17:54.871Z,90.73
2018-11-25T20:20:25.335Z,110.37
2018-11-25T20:22:54.395Z,103.53
2018-11-25T20:25:22.950Z,97.77
2018-11-25T20:27:52.893Z,87.43
2018-11-25T20:30:27.880Z,85.63
2018-11-25T20:33:01.637Z,88.17
2018-11-25T20:35:30.163Z,91.30
2018-11-25T20:38:03.949Z,79.53
2018-11-25T20:40:32.498Z,95.63
2018-11-25T20:43:01.188Z,87.90
2018-11-25T20:45:39.098Z,89.90
2018-11-25T20:48:03.648Z,90.43
2018-11-25T20:50:32.155Z,81.70
2018-11-25T20:53:05.997Z,79.70
2018-11-25T20:55:34.532Z,79.53
2018-11-25T20:58:03.055Z,83.30
2018-11-25T21:00:34.580Z,85.33
2018-11-25T21:03:03.099Z,77.37
2018-11-25T21:05:31.642Z,75.77
2018-11-25T21:08:00.324Z,72.50
2018-11-25T21:10:28.949Z,66.43
2018-11-25T21:12:57.492Z,75.73
2018-11-25T21:15:26.002Z,75.13
2018-11-25T21:17:54.570Z,71.57
2018-11-25T21:20:24.921Z,68.03
2018-11-25T21:22:53.431Z,78.77
2018-11-25T21:25:23.050Z,76.10
2018-11-25T21:27:51.613Z,66.23
2018-11-25T21:30:22.544Z,74.73
2018-11-25T21:32:52.557Z,66.73
2018-11-25T21:35:21.081Z,74.07
2018-11-25T21:37:49.635Z,64.37
2018-11-25T21:40:20.232Z,72.07
2018-11-25T21:42:48.743Z,67.13
2018-11-25T21:45:18.320Z,74.77
2018-11-25T21:47:47.338Z,71.07
2018-11-25T21:50:18.281Z,87.27
2018-11-25T21:52:46.869Z,76.53
2018-11-25T21:55:16.638Z,79.33
2018-11-25T21:57:45.297Z,72.07
2018-11-25T22:00:22.958Z,81.67
2018-11-25T22:02:51.534Z,74.80
2018-11-25T22:05:24.657Z,79.70
2018-11-25T22:07:48.722Z,69.47
2018-11-25T22:10:19.423Z,73.43
2018-11-25T22:12:48.376Z,82.07
2018-11-25T22:15:18.245Z,75.30
2018-11-25T22:17:46.731Z,80.70
2018-11-25T22:20:16.189Z,72.50
2018-11-25T22:22:44.742Z,71.87
2018-11-25T22:25:14.111Z,88.00
2018-11-25T22:27:42.672Z,93.00
2018-11-25T22:30:15.397Z,85.93
2018-11-25T22:32:43.973Z,76.60
2018-11-25T22:35:13.503Z,78.77
2018-11-25T22:37:42.201Z,65.03
2018-11-25T22:40:11.516Z,72.27
2018-11-25T22:42:40.598Z,75.03
2018-11-25T22:45:14.475Z,98.03
2018-11-25T22:47:42.979Z,94.77
2018-11-25T22:50:16.583Z,89.77
2018-11-25T22:52:45.300Z,80.33
2018-11-25T22:55:18.888Z,103.13
2018-11-25T22:57:47.445Z,84.70
2018-11-25T23:00:33.886Z,71.10
2018-11-25T23:03:02.478Z,79.20
2018-11-25T23:05:42.318Z,86.13
2018-11-25T23:08:10.862Z,96.43
2018-11-25T23:10:39.393Z,85.43
2018-11-25T23:13:08.037Z,78.80
2018-11-25T23:15:36.713Z,91.27
2018-11-25T23:18:05.338Z,80.40
2018-11-25T23:20:33.881Z,95.13
2018-11-25T23:23:02.485Z,84.43
2018-11-25T23:25:31.013Z,88.77
2018-11-25T23:27:59.807Z,95.97
2018-11-25T23:30:28.354Z,81.77
2018-11-25T23:32:56.906Z,107.03
2018-11-25T23:35:26.684Z,73.60
2018-11-25T23:37:55.234Z,86.13
2018-11-25T23:40:24.403Z,83.60
2018-11-25T23:42:52.940Z,78.80
2018-11-25T23:45:21.505Z,85.97
2018-11-25T23:47:50.075Z,84.90
2018-11-25T23:50:18.655Z,77.63
2018-11-25T23:52:48.215Z,86.00
2018-11-25T23:55:16.763Z,84.60
2018-11-25T23:57:45.414Z,77.00
